Terminal Aerodrome Forecast
Issued by NWS

Home | Current Version | Previous Version | Graphics & Text | Print | Product List | Glossary On
Versions: 1 2 3 4 5 6 7 8 9 10 11 12 13 14
000
FTUS45 KGGW 252320
TAFSDY
TAF
KSDY 252320Z 2600/2624 06008KT P6SM FEW150
     FM261500 VRB06KT P6SM SCT120
     FM261800 07010KT P6SM VCSH SCT100 PROB30 2618/2624 6SM TS
      BKN090CB BKN100=

USA.gov is the U.S. government's official web portal to all federal, state and local government web resources and services.